GMFK

Moulay Ali Cherif Airport

Errachidia, Morocco
METAR GMFK 182200Z 01013KT 320V030 CAVOK 30/05 Q1020 NOSIG
Observed Flight Rules
Jun-18 @ 22:00 UTC (29 minutes ago) Visual Flight Rules
Wind Visibility Clouds
10° at 13 knots 10,000+ meters
  • Clear skies
Temperatures Readings
Current 30°C / 86°F
Dewpoint 5°C / 41°F
Humidity 20%
Altimeter 30.12" Hg
Pressure 1020 hPa
Elevation 1045
METAR GMFK 182200Z 01013KT 320V030 CAVOK 30/05 Q1020 NOSIG
Observed Flight Rules
Jun-18 @ 22:00 UTC
(29 minutes ago)
VFR
Wind Visibility
10° at 13 knots 10,000+ meters
Clouds
  • Clear skies
Temperature Dewpoint
30°C / 86°F 5°C / 41°F
Humidity Altimeter Pressure
20% 30.12" Hg 1020 hPa